createdAt,value
2023-02-28T00:00:22.417Z,2.30
2023-02-28T00:02:50.692Z,2.30
2023-02-28T00:05:21.835Z,2.30
2023-02-28T00:07:50.581Z,2.40
2023-02-28T00:10:21.633Z,2.40
2023-02-28T00:12:49.966Z,2.20
2023-02-28T00:15:18.546Z,2.10
2023-02-28T00:17:46.861Z,2.10
2023-02-28T00:20:16.627Z,2.00
2023-02-28T00:22:48.534Z,2.00
2023-02-28T00:25:19.102Z,2.10
2023-02-28T00:27:47.763Z,2.20
2023-02-28T00:30:18.980Z,2.10
2023-02-28T00:32:47.296Z,2.10
2023-02-28T00:35:15.934Z,2.20
2023-02-28T00:37:45.576Z,2.20
2023-02-28T00:40:14.094Z,2.30
2023-02-28T00:42:42.524Z,2.30
2023-02-28T00:45:11.733Z,2.40
2023-02-28T00:47:39.952Z,2.30
2023-02-28T00:50:09.965Z,2.30
2023-02-28T00:52:38.274Z,2.30
2023-02-28T00:55:09.090Z,2.30
2023-02-28T00:57:37.379Z,2.30
2023-02-28T01:00:07.182Z,2.30
2023-02-28T01:02:35.437Z,2.20
2023-02-28T01:05:03.817Z,2.10
2023-02-28T01:07:32.702Z,2.10
2023-02-28T01:10:00.982Z,2.20
2023-02-28T01:12:31.121Z,2.20
2023-02-28T01:14:59.822Z,2.20
2023-02-28T01:17:28.122Z,2.20
2023-02-28T01:19:57.044Z,2.20
2023-02-28T01:22:25.282Z,2.10
2023-02-28T01:24:53.912Z,2.20
2023-02-28T01:27:22.231Z,2.10
2023-02-28T01:29:52.947Z,2.10
2023-02-28T01:32:21.321Z,2.10
2023-02-28T01:34:49.628Z,2.00
2023-02-28T01:37:17.923Z,2.00
2023-02-28T01:39:46.152Z,1.90
2023-02-28T01:42:14.479Z,1.90
2023-02-28T01:45:03.078Z,1.80
2023-02-28T01:47:34.630Z,1.80
2023-02-28T01:50:06.663Z,1.70
2023-02-28T01:52:35.022Z,1.50
2023-02-28T01:55:04.442Z,1.50
2023-02-28T01:57:38.813Z,1.50
2023-02-28T02:00:11.554Z,1.60
2023-02-28T02:02:39.895Z,1.60
2023-02-28T02:05:11.938Z,1.50
2023-02-28T02:07:42.101Z,1.50
2023-02-28T02:10:15.800Z,1.50
2023-02-28T02:13:20.195Z,1.40
2023-02-28T02:15:57.289Z,1.50
2023-02-28T02:18:31.005Z,1.60
2023-02-28T02:21:40.390Z,1.60
2023-02-28T02:24:50.401Z,1.60
2023-02-28T02:27:27.631Z,1.50
2023-02-28T02:30:35.599Z,1.50
2023-02-28T02:33:52.025Z,1.50
2023-02-28T02:36:24.116Z,1.40
2023-02-28T02:38:54.130Z,1.30
2023-02-28T02:41:27.239Z,1.20
2023-02-28T02:43:58.451Z,1.10
2023-02-28T02:46:29.602Z,1.00
2023-02-28T02:48:58.117Z,0.90
2023-02-28T02:51:28.051Z,0.90
2023-02-28T02:53:59.933Z,0.90
2023-02-28T02:56:30.587Z,0.80
2023-02-28T02:59:03.408Z,0.80
2023-02-28T03:01:32.213Z,0.70
2023-02-28T03:04:04.766Z,0.60
2023-02-28T03:06:34.481Z,0.60
2023-02-28T03:09:02.756Z,0.50
2023-02-28T03:11:31.371Z,0.50
2023-02-28T03:14:32.215Z,0.40
2023-02-28T03:17:33.083Z,0.40
2023-02-28T03:20:09.551Z,0.40
2023-02-28T03:22:54.323Z,0.30
2023-02-28T03:25:29.681Z,0.30
2023-02-28T03:28:08.188Z,0.20
2023-02-28T03:30:42.586Z,0.20
2023-02-28T03:33:13.630Z,0.20
2023-02-28T03:35:45.549Z,0.10
2023-02-28T03:38:17.894Z,0.10
2023-02-28T03:40:50.544Z,0.10
2023-02-28T03:43:23.900Z,0.10
2023-02-28T03:45:52.403Z,0.00
2023-02-28T03:48:23.751Z,0.00
2023-02-28T03:50:54.168Z,0.00
2023-02-28T03:53:27.075Z,0.00
2023-02-28T03:55:58.803Z,0.00
2023-02-28T03:58:30.206Z,0.00
2023-02-28T04:01:08.517Z,-0.10
2023-02-28T04:03:37.887Z,-0.10
2023-02-28T04:06:06.902Z,-0.20
2023-02-28T04:08:36.616Z,-0.20
2023-02-28T04:11:08.830Z,-0.30
2023-02-28T04:13:37.166Z,-0.30
2023-02-28T04:16:18.840Z,-0.30
2023-02-28T04:18:49.910Z,-0.30
2023-02-28T04:21:21.592Z,-0.40
2023-02-28T04:23:51.316Z,-0.40
2023-02-28T04:26:19.544Z,-0.40
2023-02-28T04:28:47.827Z,-0.40
2023-02-28T04:31:16.044Z,-0.40
2023-02-28T04:33:44.503Z,-0.40
2023-02-28T04:36:14.212Z,-0.40
2023-02-28T04:38:42.477Z,-0.40
2023-02-28T04:41:12.180Z,-0.50
2023-02-28T04:43:40.444Z,-0.50
2023-02-28T04:46:08.802Z,-0.50
2023-02-28T04:48:38.417Z,-0.50
2023-02-28T04:51:08.165Z,-0.50
2023-02-28T04:53:36.548Z,-0.50
2023-02-28T04:56:05.075Z,-0.60
2023-02-28T04:58:34.753Z,-0.60
2023-02-28T05:01:13.681Z,-0.60
2023-02-28T05:03:42.615Z,-0.60
2023-02-28T05:06:10.968Z,-0.60
2023-02-28T05:08:39.346Z,-0.60
2023-02-28T05:11:09.549Z,-0.60
2023-02-28T05:13:39.685Z,-0.70
2023-02-28T05:16:09.040Z,-0.70
2023-02-28T05:18:37.419Z,-0.70
2023-02-28T05:21:05.985Z,-0.70
2023-02-28T05:23:34.575Z,-0.70
2023-02-28T05:26:02.914Z,-0.70
2023-02-28T05:28:31.211Z,-0.70
2023-02-28T05:31:00.794Z,-0.70
2023-02-28T05:33:29.123Z,-0.80
2023-02-28T05:35:57.380Z,-0.80
2023-02-28T05:38:25.777Z,-0.80
2023-02-28T05:40:54.406Z,-0.80
2023-02-28T05:43:22.664Z,-0.80
2023-02-28T05:45:50.979Z,-0.80
2023-02-28T05:48:20.640Z,-0.80
2023-02-28T05:50:48.900Z,-0.80
2023-02-28T05:53:17.121Z,-0.90
2023-02-28T05:55:45.366Z,-0.90
2023-02-28T05:58:13.618Z,-0.90
2023-02-28T06:00:42.447Z,-0.90
2023-02-28T06:03:10.778Z,-0.90
2023-02-28T06:05:40.565Z,-0.90
2023-02-28T06:08:09.064Z,-0.90
2023-02-28T06:10:37.417Z,-0.90
2023-02-28T06:13:05.838Z,-0.90
2023-02-28T06:15:34.203Z,-0.90
2023-02-28T06:18:02.736Z,-0.90
2023-02-28T06:20:31.120Z,-0.90
2023-02-28T06:23:00.820Z,-0.90
2023-02-28T06:25:29.219Z,-0.90
2023-02-28T06:27:57.583Z,-0.80
2023-02-28T06:30:27.752Z,-0.80
2023-02-28T06:32:56.426Z,-0.80
2023-02-28T06:35:24.742Z,-0.70
2023-02-28T06:37:53.067Z,-0.70
2023-02-28T06:40:22.762Z,-0.70
2023-02-28T06:42:51.031Z,-0.60
2023-02-28T06:45:19.520Z,-0.60
2023-02-28T06:47:53.149Z,-0.50
2023-02-28T06:50:21.596Z,-0.50
2023-02-28T06:52:54.815Z,-0.50
2023-02-28T06:55:24.530Z,-0.40
2023-02-28T06:57:52.780Z,-0.40
2023-02-28T07:00:22.052Z,-0.50
2023-02-28T07:02:50.329Z,-0.50
2023-02-28T07:05:18.821Z,-0.50
2023-02-28T07:07:48.250Z,-0.40
2023-02-28T07:10:20.125Z,-0.30
2023-02-28T07:12:49.985Z,-0.20
2023-02-28T07:15:18.498Z,-0.20
2023-02-28T07:17:46.757Z,-0.10
2023-02-28T07:20:15.629Z,-0.10
2023-02-28T07:22:44.018Z,0.00
2023-02-28T07:25:12.296Z,-0.10
2023-02-28T07:27:42.240Z,0.00
2023-02-28T07:30:13.900Z,0.10
2023-02-28T07:32:44.747Z,0.10
2023-02-28T07:35:13.347Z,0.10
2023-02-28T07:37:42.497Z,0.20
2023-02-28T07:40:13.497Z,0.20
2023-02-28T07:42:42.771Z,0.30
2023-02-28T07:45:13.556Z,0.30
2023-02-28T07:47:42.054Z,0.40
2023-02-28T07:50:12.401Z,0.50
2023-02-28T07:52:40.906Z,0.70
2023-02-28T07:55:10.295Z,0.70
2023-02-28T07:57:38.599Z,0.80
2023-02-28T08:00:08.452Z,0.90
2023-02-28T08:02:38.182Z,0.90
2023-02-28T08:05:07.812Z,1.00
2023-02-28T08:07:36.173Z,1.10
2023-02-28T08:10:06.603Z,1.20
2023-02-28T08:12:34.890Z,1.20
2023-02-28T08:15:03.177Z,1.30
2023-02-28T08:17:33.251Z,1.40
2023-02-28T08:20:05.011Z,1.50
2023-02-28T08:22:33.299Z,1.70
2023-02-28T08:25:01.600Z,1.70
2023-02-28T08:27:29.858Z,1.90
2023-02-28T08:29:58.207Z,2.00
2023-02-28T08:32:30.111Z,2.10
2023-02-28T08:34:58.789Z,2.20
2023-02-28T08:37:28.438Z,2.20
2023-02-28T08:39:56.788Z,2.30
2023-02-28T08:42:25.229Z,2.40
2023-02-28T08:44:53.556Z,2.50
2023-02-28T08:47:21.857Z,2.60
2023-02-28T08:49:50.161Z,2.60
2023-02-28T08:52:18.781Z,2.80
2023-02-28T08:54:49.282Z,2.80
2023-02-28T08:57:17.544Z,2.90
2023-02-28T08:59:45.850Z,3.00
2023-02-28T09:02:15.464Z,3.10
2023-02-28T09:04:46.369Z,3.20
2023-02-28T09:07:14.974Z,3.30
2023-02-28T09:09:54.572Z,3.40
2023-02-28T09:12:24.680Z,3.50
2023-02-28T09:14:53.037Z,3.60
2023-02-28T09:17:21.500Z,3.70
2023-02-28T09:19:51.482Z,3.80
2023-02-28T09:22:20.012Z,3.90
2023-02-28T09:24:48.326Z,4.00
2023-02-28T09:27:16.698Z,4.10
2023-02-28T09:29:46.351Z,4.20
2023-02-28T09:32:14.707Z,4.20
2023-02-28T09:34:43.100Z,4.30
2023-02-28T09:37:11.488Z,4.40
2023-02-28T09:39:39.821Z,4.50
2023-02-28T09:42:08.726Z,4.60
2023-02-28T09:44:39.542Z,4.70
2023-02-28T09:47:15.265Z,4.90
2023-02-28T09:49:47.183Z,5.00
2023-02-28T09:52:19.235Z,5.10
2023-02-28T09:54:48.305Z,5.20
2023-02-28T09:57:21.131Z,5.30
2023-02-28T10:00:00.744Z,5.40
2023-02-28T10:02:54.838Z,5.60
2023-02-28T10:05:24.720Z,5.70
2023-02-28T10:08:09.014Z,5.80
2023-02-28T10:10:41.651Z,5.90
2023-02-28T10:13:18.786Z,5.90
2023-02-28T10:15:48.274Z,5.80
2023-02-28T10:18:21.141Z,5.80
2023-02-28T10:20:49.542Z,5.70
2023-02-28T10:23:22.869Z,5.80
2023-02-28T10:25:56.262Z,5.80
2023-02-28T10:28:24.577Z,5.80
2023-02-28T10:30:53.940Z,5.80
2023-02-28T10:33:25.952Z,5.90
2023-02-28T10:35:54.646Z,5.90
2023-02-28T10:38:25.115Z,5.80
2023-02-28T10:40:53.685Z,5.70
2023-02-28T10:43:23.983Z,5.70
2023-02-28T10:46:06.181Z,5.60
2023-02-28T10:48:41.093Z,5.70
2023-02-28T10:51:10.387Z,5.90
2023-02-28T10:53:59.708Z,5.80
2023-02-28T10:56:29.517Z,5.80
2023-02-28T10:59:01.574Z,5.60
2023-02-28T11:01:39.041Z,5.50
2023-02-28T11:04:20.719Z,5.70
2023-02-28T11:06:49.070Z,5.90
2023-02-28T11:09:23.915Z,6.00
2023-02-28T11:11:53.586Z,6.20
2023-02-28T11:14:23.611Z,6.30
2023-02-28T11:16:52.019Z,6.50
2023-02-28T11:19:25.093Z,6.50
2023-02-28T11:21:57.165Z,6.50
2023-02-28T11:24:27.764Z,6.30
2023-02-28T11:26:56.254Z,6.40
2023-02-28T11:29:26.023Z,6.50
2023-02-28T11:32:12.391Z,6.60
2023-02-28T11:34:42.589Z,6.80
2023-02-28T11:37:15.627Z,6.90
2023-02-28T11:39:44.432Z,7.10
2023-02-28T11:42:34.427Z,7.10
2023-02-28T11:45:16.201Z,7.00
2023-02-28T11:47:49.690Z,7.10
2023-02-28T11:50:29.905Z,7.20
2023-02-28T11:53:00.831Z,7.30
2023-02-28T11:55:30.321Z,7.30
2023-02-28T11:58:40.692Z,7.30
2023-02-28T12:01:24.612Z,7.10
2023-02-28T12:04:03.786Z,6.90
2023-02-28T12:06:36.397Z,6.80
2023-02-28T12:09:25.669Z,6.70
2023-02-28T12:11:56.244Z,6.60
2023-02-28T12:14:56.502Z,6.80
2023-02-28T12:17:36.956Z,7.00
2023-02-28T12:20:15.339Z,7.30
2023-02-28T12:22:48.013Z,7.20
2023-02-28T12:25:47.896Z,7.30
2023-02-28T12:28:18.026Z,7.40
2023-02-28T12:30:52.434Z,7.50
2023-02-28T12:33:22.916Z,7.50
2023-02-28T12:35:56.488Z,7.60
2023-02-28T12:38:27.948Z,7.70
2023-02-28T12:41:00.766Z,7.70
2023-02-28T12:43:33.124Z,7.80
2023-02-28T12:46:03.458Z,7.80
2023-02-28T12:48:36.039Z,7.90
2023-02-28T12:51:04.470Z,7.90
2023-02-28T12:53:40.801Z,7.80
2023-02-28T12:56:14.894Z,7.60
2023-02-28T12:58:45.416Z,7.60
2023-02-28T13:01:44.663Z,7.70
2023-02-28T13:05:08.809Z,7.90
2023-02-28T13:08:02.414Z,8.00
2023-02-28T13:10:42.966Z,8.10
2023-02-28T13:13:18.588Z,8.20
2023-02-28T13:16:05.349Z,8.20
2023-02-28T13:18:40.646Z,8.30
2023-02-28T13:21:09.851Z,8.30
2023-02-28T13:24:03.626Z,8.30
2023-02-28T13:27:32.952Z,8.20
2023-02-28T13:30:03.213Z,7.80
2023-02-28T13:32:41.152Z,7.40
2023-02-28T13:35:37.566Z,7.40
2023-02-28T13:38:36.970Z,7.30
2023-02-28T13:41:50.767Z,7.20
2023-02-28T13:44:23.837Z,7.50
2023-02-28T13:47:23.151Z,7.60
2023-02-28T13:49:53.673Z,7.80
2023-02-28T13:52:25.985Z,7.80
2023-02-28T13:55:23.037Z,7.90
2023-02-28T13:58:03.031Z,8.00
2023-02-28T14:00:42.419Z,7.90
2023-02-28T14:03:28.557Z,7.90
2023-02-28T14:06:18.888Z,7.90
2023-02-28T14:08:54.559Z,7.90
2023-02-28T14:11:32.690Z,7.80
2023-02-28T14:14:01.013Z,7.70
2023-02-28T14:16:31.085Z,7.60
2023-02-28T14:19:04.536Z,7.60
2023-02-28T14:21:35.124Z,7.60
2023-02-28T14:24:42.638Z,7.60
2023-02-28T14:27:29.156Z,7.70
2023-02-28T14:30:43.430Z,7.70
2023-02-28T14:33:28.385Z,7.50
2023-02-28T14:36:05.623Z,7.50
2023-02-28T14:38:37.483Z,7.40
2023-02-28T14:41:08.842Z,7.40
2023-02-28T14:43:37.711Z,7.40
2023-02-28T14:46:07.009Z,7.40
2023-02-28T14:48:35.337Z,7.40
2023-02-28T14:51:05.130Z,7.40
2023-02-28T14:53:38.397Z,7.30
2023-02-28T14:56:07.656Z,7.10
2023-02-28T14:58:36.123Z,6.90
2023-02-28T15:01:06.126Z,6.80
2023-02-28T15:03:36.233Z,6.70
2023-02-28T15:06:07.833Z,6.80
2023-02-28T15:08:37.344Z,6.70
2023-02-28T15:11:07.362Z,6.70
2023-02-28T15:13:39.643Z,6.70
2023-02-28T15:16:11.426Z,6.60
2023-02-28T15:18:47.276Z,6.50
2023-02-28T15:21:19.615Z,6.50
2023-02-28T15:23:51.736Z,6.50
2023-02-28T15:26:22.089Z,6.40
2023-02-28T15:28:51.673Z,6.40
2023-02-28T15:31:24.447Z,6.40
2023-02-28T15:33:56.969Z,6.40
2023-02-28T15:36:32.839Z,6.40
2023-02-28T15:39:14.277Z,6.40
2023-02-28T15:41:44.110Z,6.30
2023-02-28T15:44:30.502Z,6.20
2023-02-28T15:47:03.593Z,6.20
2023-02-28T15:49:44.873Z,6.10
2023-02-28T15:52:17.714Z,6.10
2023-02-28T15:54:46.121Z,6.00
2023-02-28T15:57:17.304Z,6.00
2023-02-28T15:59:52.073Z,5.90
2023-02-28T16:02:21.957Z,5.90
2023-02-28T16:05:21.618Z,5.90
2023-02-28T16:07:51.281Z,5.80
2023-02-28T16:10:19.774Z,5.70
2023-02-28T16:12:48.100Z,5.70
2023-02-28T16:15:21.826Z,5.60
2023-02-28T16:17:50.253Z,5.60
2023-02-28T16:20:20.065Z,5.50
2023-02-28T16:22:48.300Z,5.40
2023-02-28T16:25:19.971Z,5.30
2023-02-28T16:27:51.281Z,5.20
2023-02-28T16:30:23.039Z,5.20
2023-02-28T16:32:52.017Z,5.10
2023-02-28T16:35:20.857Z,5.00
2023-02-28T16:37:49.197Z,4.90
2023-02-28T16:40:21.923Z,4.80
2023-02-28T16:42:51.167Z,4.70
2023-02-28T16:45:25.512Z,4.60
2023-02-28T16:47:53.845Z,4.50
2023-02-28T16:50:23.332Z,4.30
2023-02-28T16:52:53.164Z,4.20
2023-02-28T16:55:23.163Z,4.20
2023-02-28T16:57:54.019Z,4.10
2023-02-28T17:00:22.940Z,4.00
2023-02-28T17:02:51.729Z,3.90
2023-02-28T17:05:20.331Z,3.80
2023-02-28T17:07:48.881Z,3.80
2023-02-28T17:10:18.681Z,3.70
2023-02-28T17:12:48.424Z,3.60
2023-02-28T17:15:18.233Z,3.50
2023-02-28T17:17:46.601Z,3.50
2023-02-28T17:20:18.353Z,3.40
2023-02-28T17:22:46.604Z,3.40
2023-02-28T17:25:14.935Z,3.30
2023-02-28T17:27:43.258Z,3.30
2023-02-28T17:30:16.979Z,3.30
2023-02-28T17:32:45.306Z,3.20
2023-02-28T17:35:13.674Z,3.20
2023-02-28T17:37:42.077Z,3.20
2023-02-28T17:40:15.786Z,3.10
2023-02-28T17:42:44.430Z,3.00
2023-02-28T17:45:14.297Z,3.00
2023-02-28T17:47:42.621Z,2.90
2023-02-28T17:50:15.265Z,2.90
2023-02-28T17:52:43.607Z,2.80
2023-02-28T17:55:12.818Z,2.80
2023-02-28T17:57:42.774Z,2.80
2023-02-28T18:00:16.874Z,2.70
2023-02-28T18:02:45.235Z,2.60
2023-02-28T18:05:13.520Z,2.60
2023-02-28T18:07:42.036Z,2.50
2023-02-28T18:10:16.956Z,2.50
2023-02-28T18:12:45.239Z,2.40
2023-02-28T18:15:15.353Z,2.40
2023-02-28T18:17:43.693Z,2.40
2023-02-28T18:20:12.848Z,2.40
2023-02-28T18:22:41.701Z,2.30
2023-02-28T18:25:14.608Z,2.30
2023-02-28T18:27:53.805Z,2.30
2023-02-28T18:30:23.883Z,2.20
2023-02-28T18:32:52.187Z,2.20
2023-02-28T18:35:35.107Z,2.10
2023-02-28T18:38:05.872Z,2.00
2023-02-28T18:40:34.251Z,2.00
2023-02-28T18:43:02.910Z,1.90
2023-02-28T18:45:33.169Z,1.90
2023-02-28T18:48:01.480Z,1.80
2023-02-28T18:50:29.721Z,1.70
2023-02-28T18:52:59.223Z,1.60
2023-02-28T18:55:27.899Z,1.60
2023-02-28T18:57:56.235Z,1.60
2023-02-28T19:00:25.812Z,1.50
2023-02-28T19:02:55.526Z,1.50
2023-02-28T19:05:23.867Z,1.50
2023-02-28T19:07:52.176Z,1.40
2023-02-28T19:10:20.662Z,1.40
2023-02-28T19:12:48.908Z,1.40
2023-02-28T19:15:17.290Z,1.30
2023-02-28T19:17:46.264Z,1.30
2023-02-28T19:20:16.539Z,1.30
2023-02-28T19:22:45.138Z,1.30
2023-02-28T19:25:13.517Z,1.30
2023-02-28T19:27:41.881Z,1.20
2023-02-28T19:30:12.687Z,1.20
2023-02-28T19:32:41.016Z,1.20
2023-02-28T19:35:10.208Z,1.20
2023-02-28T19:37:40.557Z,1.20
2023-02-28T19:40:11.040Z,1.20
2023-02-28T19:42:39.315Z,1.10
2023-02-28T19:45:10.110Z,1.10
2023-02-28T19:47:38.871Z,1.10
2023-02-28T19:50:08.294Z,1.00
2023-02-28T19:52:36.599Z,1.00
2023-02-28T19:55:07.264Z,0.90
2023-02-28T19:57:35.505Z,0.90
2023-02-28T20:00:04.240Z,0.90
2023-02-28T20:02:32.570Z,0.90
2023-02-28T20:05:01.556Z,0.90
2023-02-28T20:07:29.903Z,0.80
2023-02-28T20:09:58.220Z,0.80
2023-02-28T20:12:27.907Z,0.80
2023-02-28T20:14:57.029Z,0.80
2023-02-28T20:17:25.508Z,0.70
2023-02-28T20:19:53.828Z,0.70
2023-02-28T20:22:22.201Z,0.60
2023-02-28T20:24:50.486Z,0.60
2023-02-28T20:27:18.810Z,0.60
2023-02-28T20:29:48.520Z,0.60
2023-02-28T20:32:16.898Z,0.60
2023-02-28T20:34:45.296Z,0.60
2023-02-28T20:37:13.507Z,0.60
2023-02-28T20:39:41.890Z,0.60
2023-02-28T20:42:10.152Z,0.60
2023-02-28T20:44:38.440Z,0.50
2023-02-28T20:47:08.646Z,0.50
2023-02-28T20:49:36.935Z,0.50
2023-02-28T20:52:05.546Z,0.50
2023-02-28T20:54:36.036Z,0.50
2023-02-28T20:57:04.632Z,0.50
2023-02-28T20:59:33.233Z,0.50
2023-02-28T21:02:01.594Z,0.50
2023-02-28T21:04:31.364Z,0.40
2023-02-28T21:06:59.666Z,0.40
2023-02-28T21:09:28.976Z,0.40
2023-02-28T21:11:57.347Z,0.40
2023-02-28T21:14:26.106Z,0.30
2023-02-28T21:16:54.359Z,0.30
2023-02-28T21:19:22.953Z,0.30
2023-02-28T21:21:52.608Z,0.20
2023-02-28T21:24:21.113Z,0.20
2023-02-28T21:26:49.530Z,0.20
2023-02-28T21:29:17.884Z,0.20
2023-02-28T21:31:46.251Z,0.10
2023-02-28T21:34:14.968Z,0.10
2023-02-28T21:36:45.361Z,0.10
2023-02-28T21:39:16.647Z,0.00
2023-02-28T21:41:44.908Z,0.00
2023-02-28T21:44:18.768Z,-0.10
2023-02-28T21:46:47.585Z,-0.10
2023-02-28T21:49:16.122Z,-0.20
2023-02-28T21:51:44.848Z,-0.20
2023-02-28T21:54:14.970Z,-0.20
2023-02-28T21:56:43.223Z,-0.20
2023-02-28T21:59:12.063Z,-0.20
2023-02-28T22:01:41.451Z,-0.30
2023-02-28T22:04:11.203Z,-0.20
2023-02-28T22:06:40.984Z,-0.30
2023-02-28T22:09:10.435Z,-0.30
2023-02-28T22:11:40.167Z,-0.30
2023-02-28T22:14:11.391Z,-0.30
2023-02-28T22:16:51.212Z,-0.30
2023-02-28T22:19:21.321Z,-0.30
2023-02-28T22:21:50.324Z,-0.30
2023-02-28T22:24:20.660Z,-0.30
2023-02-28T22:26:51.760Z,-0.30
2023-02-28T22:29:20.145Z,-0.30
2023-02-28T22:31:48.522Z,-0.30
2023-02-28T22:34:16.991Z,-0.30
2023-02-28T22:36:46.275Z,-0.30
2023-02-28T22:39:14.542Z,-0.40
2023-02-28T22:41:42.854Z,-0.40
2023-02-28T22:44:12.599Z,-0.50
2023-02-28T22:46:40.924Z,-0.50
2023-02-28T22:49:09.243Z,-0.50
2023-02-28T22:51:37.524Z,-0.50
2023-02-28T22:54:06.281Z,-0.50
2023-02-28T22:56:34.766Z,-0.50
2023-02-28T22:59:03.410Z,-0.50
2023-02-28T23:01:34.599Z,-0.50
2023-02-28T23:04:03.171Z,-0.50
2023-02-28T23:06:33.351Z,-0.50
2023-02-28T23:09:03.146Z,-0.60
2023-02-28T23:11:33.307Z,-0.60
2023-02-28T23:14:01.764Z,-0.60
2023-02-28T23:16:33.229Z,-0.60
2023-02-28T23:19:02.743Z,-0.70
2023-02-28T23:21:31.077Z,-0.70
2023-02-28T23:23:59.342Z,-0.70
2023-02-28T23:26:27.829Z,-0.80
2023-02-28T23:28:56.217Z,-0.80
2023-02-28T23:31:24.909Z,-0.80
2023-02-28T23:33:54.618Z,-0.90
2023-02-28T23:36:22.884Z,-0.90
2023-02-28T23:38:52.654Z,-0.90
2023-02-28T23:41:21.551Z,-0.90
2023-02-28T23:43:49.879Z,-0.90
2023-02-28T23:46:18.956Z,-0.90
2023-02-28T23:48:47.398Z,-0.80
2023-02-28T23:51:19.219Z,-0.80
2023-02-28T23:53:48.748Z,-0.80
2023-02-28T23:56:18.496Z,-0.80
2023-02-28T23:58:46.913Z,-0.80
